createdAt,value
2019-02-07T00:04:05.387Z,14.80
2019-02-07T00:09:09.930Z,14.83
2019-02-07T00:14:14.390Z,14.70
2019-02-07T00:19:18.771Z,14.10
2019-02-07T00:24:23.142Z,15.53
2019-02-07T00:29:27.498Z,15.30
2019-02-07T00:34:31.896Z,16.02
2019-02-07T00:39:36.743Z,16.23
2019-02-07T00:44:50.397Z,15.90
2019-02-07T00:49:47.576Z,16.53
2019-02-07T00:54:51.933Z,16.62
2019-02-07T00:59:56.322Z,16.33
2019-02-07T01:05:00.684Z,16.60
2019-02-07T01:10:08.309Z,16.33
2019-02-07T01:15:13.519Z,15.27
2019-02-07T01:20:18.054Z,16.70
2019-02-07T01:25:23.572Z,16.33
2019-02-07T01:30:29.170Z,16.70
2019-02-07T01:35:33.550Z,17.37
2019-02-07T01:40:37.982Z,17.60
2019-02-07T01:45:42.332Z,16.83
2019-02-07T01:50:46.954Z,17.47
2019-02-07T01:55:51.419Z,16.53
2019-02-07T02:00:56.074Z,16.27
2019-02-07T02:06:00.487Z,15.60
2019-02-07T02:11:04.958Z,15.63
2019-02-07T02:16:09.486Z,15.67
2019-02-07T02:21:13.863Z,15.40
2019-02-07T02:26:18.225Z,15.50
2019-02-07T02:31:22.573Z,15.37
2019-02-07T02:36:26.969Z,15.50
2019-02-07T02:41:31.361Z,15.37
2019-02-07T02:46:35.703Z,15.40
2019-02-07T02:51:40.117Z,14.83
2019-02-07T02:56:44.500Z,14.73
2019-02-07T03:01:50.530Z,13.90
2019-02-07T03:07:02.753Z,13.73
2019-02-07T03:12:14.741Z,14.77
2019-02-07T03:17:20.771Z,14.63
2019-02-07T03:22:26.800Z,15.13
2019-02-07T03:27:47.777Z,16.07
2019-02-07T03:33:12.429Z,17.13
2019-02-07T03:38:21.173Z,15.70
2019-02-07T03:43:45.058Z,15.73
2019-02-07T03:48:53.707Z,16.60
2019-02-07T03:53:59.723Z,16.90
2019-02-07T03:59:12.165Z,15.73
2019-02-07T04:04:21.205Z,16.67
2019-02-07T04:09:27.238Z,16.47
2019-02-07T04:14:33.362Z,15.87
2019-02-07T04:19:41.932Z,16.57
2019-02-07T04:24:50.910Z,15.87
2019-02-07T04:30:12.063Z,16.67
2019-02-07T04:35:18.090Z,16.73
2019-02-07T04:40:27.291Z,17.77
2019-02-07T04:45:42.567Z,16.70
2019-02-07T04:50:48.592Z,17.13
2019-02-07T04:56:00.330Z,17.57
2019-02-07T05:01:22.615Z,16.53
2019-02-07T05:06:28.659Z,16.73
2019-02-07T05:11:46.970Z,17.13
2019-02-07T05:17:11.259Z,16.53
2019-02-07T05:22:32.303Z,14.17
2019-02-07T05:27:38.401Z,14.07
2019-02-07T05:32:59.505Z,12.83
2019-02-07T05:38:05.544Z,13.90
2019-02-07T05:43:22.241Z,14.70
2019-02-07T05:48:28.229Z,14.07
2019-02-07T05:53:37.089Z,14.53
2019-02-07T05:58:45.910Z,13.17
2019-02-07T06:04:00.808Z,14.93
2019-02-07T06:09:12.650Z,14.80
2019-02-07T06:14:34.752Z,13.83
2019-02-07T06:19:46.849Z,15.13
2019-02-07T06:25:01.945Z,13.83
2019-02-07T06:30:14.101Z,13.87
2019-02-07T06:35:20.179Z,13.63
2019-02-07T06:40:26.189Z,13.13
2019-02-07T06:45:32.187Z,13.27
2019-02-07T06:50:41.045Z,13.50
2019-02-07T06:55:53.235Z,12.97
2019-02-07T07:01:08.317Z,13.07
2019-02-07T07:06:14.355Z,12.13
2019-02-07T07:11:20.378Z,13.57
2019-02-07T07:16:42.449Z,13.03
2019-02-07T07:22:00.460Z,12.23
2019-02-07T07:27:09.275Z,12.00
2019-02-07T07:32:33.662Z,11.93
2019-02-07T07:37:42.398Z,11.23
2019-02-07T07:42:54.386Z,10.73
2019-02-07T07:48:09.286Z,10.67
2019-02-07T07:53:18.055Z,10.13
2019-02-07T07:58:42.502Z,10.43
2019-02-07T08:03:48.507Z,10.17
2019-02-07T08:09:11.170Z,10.40
2019-02-07T08:14:29.746Z,9.70
2019-02-07T08:19:45.838Z,9.73
2019-02-07T08:30:17.716Z,10.67
2019-02-07T08:35:23.743Z,10.37
2019-02-07T08:40:44.849Z,10.77
2019-02-07T08:46:07.046Z,9.50
2019-02-07T08:51:29.527Z,10.50
2019-02-07T08:56:50.576Z,10.17
2019-02-07T09:02:12.846Z,10.37
2019-02-07T09:07:18.881Z,10.33
2019-02-07T09:12:42.983Z,10.57
2019-02-07T09:17:51.421Z,10.03
2019-02-07T09:23:06.431Z,10.50
2019-02-07T09:28:12.429Z,11.27
2019-02-07T09:33:26.741Z,10.83
2019-02-07T09:38:38.075Z,11.23
2019-02-07T09:43:50.556Z,11.77
2019-02-07T09:48:59.471Z,10.83
2019-02-07T09:54:06.730Z,10.47
2019-02-07T09:59:24.812Z,10.37
2019-02-07T10:04:30.839Z,10.63
2019-02-07T10:09:53.414Z,11.20
2019-02-07T10:15:15.861Z,10.50
2019-02-07T10:20:37.553Z,10.30
2019-02-07T10:26:00.350Z,10.00
2019-02-07T10:31:06.452Z,10.63
2019-02-07T10:36:21.270Z,11.37
2019-02-07T10:41:36.009Z,10.80
2019-02-07T10:46:53.995Z,11.00
2019-02-07T10:52:06.180Z,11.40
2019-02-07T10:57:28.867Z,10.77
2019-02-07T11:02:37.994Z,11.03
2019-02-07T11:08:00.279Z,10.90
2019-02-07T11:13:06.769Z,10.13
2019-02-07T11:18:26.767Z,10.80
2019-02-07T11:23:48.100Z,11.07
2019-02-07T11:28:54.108Z,10.67
2019-02-07T11:34:15.540Z,10.03
2019-02-07T11:39:29.698Z,10.30
2019-02-07T11:44:35.157Z,10.97
2019-02-07T11:49:57.522Z,10.57
2019-02-07T11:55:03.540Z,10.23
2019-02-07T12:00:20.982Z,10.83
2019-02-07T12:05:27.011Z,10.97
2019-02-07T12:10:48.592Z,11.10
2019-02-07T12:15:54.610Z,10.70
2019-02-07T12:21:03.588Z,11.47
2019-02-07T12:26:27.426Z,11.47
2019-02-07T12:31:33.485Z,11.23
2019-02-07T12:36:48.494Z,12.50
2019-02-07T12:42:06.491Z,11.97
2019-02-07T12:47:12.524Z,12.03
2019-02-07T12:52:18.504Z,12.67
2019-02-07T12:57:27.062Z,13.03
2019-02-07T13:02:33.055Z,11.50
2019-02-07T13:07:44.744Z,12.67
2019-02-07T13:12:53.830Z,12.50
2019-02-07T13:18:05.865Z,13.00
2019-02-07T13:23:11.896Z,14.30
2019-02-07T13:28:17.855Z,12.77
2019-02-07T13:33:36.256Z,13.27
2019-02-07T13:38:51.552Z,12.83
2019-02-07T13:44:13.810Z,14.20
2019-02-07T13:49:28.503Z,12.37
2019-02-07T13:54:40.629Z,14.03
2019-02-07T14:00:03.337Z,14.47
2019-02-07T14:05:11.644Z,13.93
2019-02-07T14:10:23.742Z,13.67
2019-02-07T14:15:33.055Z,14.53
2019-02-07T14:20:55.033Z,13.10
2019-02-07T14:26:17.158Z,12.87
2019-02-07T14:31:39.694Z,14.03
2019-02-07T14:37:00.424Z,14.47
2019-02-07T14:42:09.100Z,14.57
2019-02-07T14:47:13.439Z,14.10
2019-02-07T14:52:17.900Z,13.73
2019-02-07T14:57:22.245Z,14.30
2019-02-07T15:02:27.626Z,13.90
2019-02-07T15:07:32.063Z,15.33
2019-02-07T15:12:36.437Z,14.40
2019-02-07T15:17:40.851Z,13.67
2019-02-07T15:22:46.396Z,14.37
2019-02-07T15:27:50.949Z,13.93
2019-02-07T15:32:55.330Z,14.70
2019-02-07T15:37:59.718Z,14.98
2019-02-07T15:43:04.440Z,14.53
2019-02-07T15:48:08.801Z,14.67
2019-02-07T15:53:13.488Z,15.03
2019-02-07T15:58:19.500Z,14.67
2019-02-07T16:03:28.514Z,16.50
2019-02-07T16:08:32.962Z,16.43
2019-02-07T16:13:37.378Z,15.57
2019-02-07T16:18:42.057Z,15.53
2019-02-07T16:23:46.690Z,15.20
2019-02-07T16:28:51.068Z,15.00
2019-02-07T16:33:55.610Z,15.93
2019-02-07T16:38:59.955Z,15.70
2019-02-07T16:44:04.454Z,15.57
2019-02-07T16:49:08.838Z,14.73
2019-02-07T16:54:13.154Z,14.85
2019-02-07T16:59:17.530Z,15.47
2019-02-07T17:04:22.288Z,15.40
2019-02-07T17:09:27.042Z,14.83
2019-02-07T17:14:31.373Z,15.07
2019-02-07T17:19:36.108Z,14.90
2019-02-07T17:24:40.482Z,14.97
2019-02-07T17:29:47.915Z,14.23
2019-02-07T17:34:52.387Z,15.63
2019-02-07T17:39:56.828Z,15.50
2019-02-07T17:45:01.361Z,15.60
2019-02-07T17:50:09.903Z,14.97
2019-02-07T17:55:17.039Z,15.67
2019-02-07T18:00:30.424Z,15.90
2019-02-07T18:05:34.896Z,15.70
2019-02-07T18:10:39.459Z,15.90
2019-02-07T18:15:44.179Z,16.00
2019-02-07T18:20:48.652Z,16.47
2019-02-07T18:25:54.064Z,17.13
2019-02-07T18:30:58.514Z,16.10
2019-02-07T18:36:02.855Z,16.70
2019-02-07T18:41:07.354Z,18.47
2019-02-07T18:46:11.760Z,18.17
2019-02-07T18:51:16.158Z,18.87
2019-02-07T18:56:20.516Z,17.83
2019-02-07T19:01:25.328Z,17.43
2019-02-07T19:06:30.214Z,17.63
2019-02-07T19:11:34.845Z,18.10
2019-02-07T19:16:39.554Z,18.10
2019-02-07T19:21:44.351Z,17.70
2019-02-07T19:26:48.911Z,17.57
2019-02-07T19:31:55.893Z,17.07
2019-02-07T19:37:03.279Z,16.97
2019-02-07T19:42:09.139Z,17.80
2019-02-07T19:47:13.963Z,17.37
2019-02-07T19:52:18.685Z,17.40
2019-02-07T19:57:23.266Z,16.60
2019-02-07T20:02:27.852Z,16.93
2019-02-07T20:07:32.590Z,17.37
2019-02-07T20:12:37.095Z,18.53
2019-02-07T20:17:41.558Z,17.33
2019-02-07T20:22:47.752Z,17.30
2019-02-07T20:27:52.185Z,17.77
2019-02-07T20:32:56.860Z,18.33
2019-02-07T20:38:01.378Z,18.03
2019-02-07T20:43:06.368Z,18.37
2019-02-07T20:48:10.986Z,18.87
2019-02-07T20:53:17.115Z,17.93
2019-02-07T20:58:21.935Z,18.30
2019-02-07T21:03:26.437Z,17.93
2019-02-07T21:08:30.972Z,19.00
2019-02-07T21:13:35.371Z,19.33
2019-02-07T21:18:39.761Z,19.93
2019-02-07T21:23:44.138Z,19.95
2019-02-07T21:28:48.549Z,20.50
2019-02-07T21:33:52.964Z,19.23
2019-02-07T21:38:57.345Z,21.13
2019-02-07T21:44:01.712Z,20.37
2019-02-07T21:49:07.376Z,21.97
2019-02-07T21:54:11.814Z,20.30
2019-02-07T21:59:16.360Z,20.57
2019-02-07T22:04:21.071Z,21.27
2019-02-07T22:09:25.723Z,21.27
2019-02-07T22:14:30.111Z,19.93
2019-02-07T22:19:34.548Z,21.00
2019-02-07T22:24:38.868Z,20.73
2019-02-07T22:29:44.112Z,21.50
2019-02-07T22:34:48.497Z,20.40
2019-02-07T22:39:53.068Z,20.87
2019-02-07T22:44:57.448Z,21.20
2019-02-07T22:50:01.820Z,21.27
2019-02-07T22:55:09.310Z,22.07
2019-02-07T23:00:43.021Z,21.63
2019-02-07T23:05:47.762Z,21.17
2019-02-07T23:10:52.321Z,20.50
2019-02-07T23:15:57.067Z,20.87
2019-02-07T23:21:01.396Z,20.83
2019-02-07T23:26:06.025Z,21.60
2019-02-07T23:31:10.751Z,20.60
2019-02-07T23:36:15.142Z,21.23
2019-02-07T23:41:19.651Z,21.20
2019-02-07T23:46:24.007Z,20.60
2019-02-07T23:51:28.570Z,21.67
2019-02-07T23:56:33.202Z,22.17
